sensor_id;sensor_type;location;lat;lon;timestamp;temperature;humidity
59881;DHT22;45751;51.380;10.326;2023-01-29T00:02:20;-3.00;97.30
59881;DHT22;45751;51.380;10.326;2023-01-29T00:04:48;-3.00;97.40
59881;DHT22;45751;51.380;10.326;2023-01-29T00:07:15;-3.00;97.60
59881;DHT22;45751;51.380;10.326;2023-01-29T00:09:41;-3.10;97.70
59881;DHT22;45751;51.380;10.326;2023-01-29T00:12:08;-3.10;97.70
59881;DHT22;45751;51.380;10.326;2023-01-29T00:14:35;-3.10;97.80
59881;DHT22;45751;51.380;10.326;2023-01-29T00:17:02;-3.10;97.80
59881;DHT22;45751;51.380;10.326;2023-01-29T00:19:29;-3.10;97.80
59881;DHT22;45751;51.380;10.326;2023-01-29T00:21:56;-3.10;97.80
59881;DHT22;45751;51.380;10.326;2023-01-29T00:24:23;-3.10;97.80
59881;DHT22;45751;51.380;10.326;2023-01-29T00:26:50;-3.10;97.80
59881;DHT22;45751;51.380;10.326;2023-01-29T00:29:17;-3.20;97.70
59881;DHT22;45751;51.380;10.326;2023-01-29T00:31:44;-3.10;97.70
59881;DHT22;45751;51.380;10.326;2023-01-29T00:34:11;-3.20;97.70
59881;DHT22;45751;51.380;10.326;2023-01-29T00:36:39;-3.20;97.80
59881;DHT22;45751;51.380;10.326;2023-01-29T00:39:07;-3.20;98.10
59881;DHT22;45751;51.380;10.326;2023-01-29T00:41:37;-3.20;98.10
59881;DHT22;45751;51.380;10.326;2023-01-29T00:44:22;-3.20;98.20
59881;DHT22;45751;51.380;10.326;2023-01-29T00:47:08;-3.30;98.20
59881;DHT22;45751;51.380;10.326;2023-01-29T00:49:55;-3.30;98.40
59881;DHT22;45751;51.380;10.326;2023-01-29T00:52:22;-3.30;98.60
59881;DHT22;45751;51.380;10.326;2023-01-29T00:54:55;-3.30;98.70
59881;DHT22;45751;51.380;10.326;2023-01-29T00:57:24;-3.20;98.90
59881;DHT22;45751;51.380;10.326;2023-01-29T00:59:54;-3.20;98.90
59881;DHT22;45751;51.380;10.326;2023-01-29T01:02:21;-3.20;99.00
59881;DHT22;45751;51.380;10.326;2023-01-29T01:05:08;-3.30;98.90
59881;DHT22;45751;51.380;10.326;2023-01-29T01:07:39;-3.30;99.00
59881;DHT22;45751;51.380;10.326;2023-01-29T01:10:08;-3.20;99.00
59881;DHT22;45751;51.380;10.326;2023-01-29T01:15:17;-3.30;99.10
59881;DHT22;45751;51.380;10.326;2023-01-29T01:17:44;-3.30;99.10
59881;DHT22;45751;51.380;10.326;2023-01-29T01:20:11;-3.30;99.20
59881;DHT22;45751;51.380;10.326;2023-01-29T01:22:39;-3.30;99.30
59881;DHT22;45751;51.380;10.326;2023-01-29T01:25:06;-3.30;99.40
59881;DHT22;45751;51.380;10.326;2023-01-29T01:27:33;-3.30;99.40
59881;DHT22;45751;51.380;10.326;2023-01-29T01:30:00;-3.20;99.40
59881;DHT22;45751;51.380;10.326;2023-01-29T01:32:27;-3.30;99.40
59881;DHT22;45751;51.380;10.326;2023-01-29T01:34:54;-3.20;99.60
59881;DHT22;45751;51.380;10.326;2023-01-29T01:37:21;-3.30;99.60
59881;DHT22;45751;51.380;10.326;2023-01-29T01:39:48;-3.20;99.70
59881;DHT22;45751;51.380;10.326;2023-01-29T01:42:16;-3.30;99.70
59881;DHT22;45751;51.380;10.326;2023-01-29T01:45:00;-3.20;99.90
59881;DHT22;45751;51.380;10.326;2023-01-29T01:47:42;-3.20;99.90
59881;DHT22;45751;51.380;10.326;2023-01-29T01:50:26;-3.20;99.90
59881;DHT22;45751;51.380;10.326;2023-01-29T01:53:02;-3.20;99.90
59881;DHT22;45751;51.380;10.326;2023-01-29T01:55:32;-3.20;99.90
59881;DHT22;45751;51.380;10.326;2023-01-29T01:58:10;-3.10;99.90
59881;DHT22;45751;51.380;10.326;2023-01-29T02:00:39;-3.10;99.90
59881;DHT22;45751;51.380;10.326;2023-01-29T02:03:06;-3.00;99.90
59881;DHT22;45751;51.380;10.326;2023-01-29T02:05:54;-3.00;99.90
59881;DHT22;45751;51.380;10.326;2023-01-29T02:08:50;-3.00;99.90
59881;DHT22;45751;51.380;10.326;2023-01-29T02:11:37;-2.90;99.90
59881;DHT22;45751;51.380;10.326;2023-01-29T02:14:04;-2.90;99.90
59881;DHT22;45751;51.380;10.326;2023-01-29T02:16:34;-2.90;99.90
59881;DHT22;45751;51.380;10.326;2023-01-29T02:19:04;-2.80;99.90
59881;DHT22;45751;51.380;10.326;2023-01-29T02:21:59;-2.80;99.90
59881;DHT22;45751;51.380;10.326;2023-01-29T02:28:35;-2.80;99.90
59881;DHT22;45751;51.380;10.326;2023-01-29T02:30:46;-2.80;99.90
59881;DHT22;45751;51.380;10.326;2023-01-29T02:35:49;-2.80;99.90
59881;DHT22;45751;51.380;10.326;2023-01-29T02:41:09;-2.80;99.90
59881;DHT22;45751;51.380;10.326;2023-01-29T02:46:46;-2.80;99.90
59881;DHT22;45751;51.380;10.326;2023-01-29T02:49:34;-2.80;99.90
59881;DHT22;45751;51.380;10.326;2023-01-29T02:52:16;-2.90;99.90
59881;DHT22;45751;51.380;10.326;2023-01-29T02:57:27;-2.90;99.90
59881;DHT22;45751;51.380;10.326;2023-01-29T03:00:04;-2.90;99.90
59881;DHT22;45751;51.380;10.326;2023-01-29T03:02:50;-2.90;99.90
59881;DHT22;45751;51.380;10.326;2023-01-29T03:05:36;-2.90;99.90
59881;DHT22;45751;51.380;10.326;2023-01-29T03:08:11;-3.00;99.90
59881;DHT22;45751;51.380;10.326;2023-01-29T03:10:50;-3.00;99.90
59881;DHT22;45751;51.380;10.326;2023-01-29T03:13:20;-3.00;99.90
59881;DHT22;45751;51.380;10.326;2023-01-29T03:15:54;-3.00;99.90
59881;DHT22;45751;51.380;10.326;2023-01-29T03:18:59;-3.00;99.90
59881;DHT22;45751;51.380;10.326;2023-01-29T03:21:35;-3.10;99.90
59881;DHT22;45751;51.380;10.326;2023-01-29T03:27:37;-3.10;99.90
59881;DHT22;45751;51.380;10.326;2023-01-29T03:30:32;-3.10;99.90
59881;DHT22;45751;51.380;10.326;2023-01-29T03:33:42;-3.10;99.90
59881;DHT22;45751;51.380;10.326;2023-01-29T03:36:20;-3.10;99.90
59881;DHT22;45751;51.380;10.326;2023-01-29T03:38:48;-3.10;99.90
59881;DHT22;45751;51.380;10.326;2023-01-29T03:44:11;-3.10;99.90
59881;DHT22;45751;51.380;10.326;2023-01-29T03:46:51;-3.10;99.90
59881;DHT22;45751;51.380;10.326;2023-01-29T03:52:26;-3.20;99.90
59881;DHT22;45751;51.380;10.326;2023-01-29T03:58:03;-3.30;99.90
59881;DHT22;45751;51.380;10.326;2023-01-29T04:03:43;-3.30;99.90
59881;DHT22;45751;51.380;10.326;2023-01-29T04:06:31;-3.30;99.90
59881;DHT22;45751;51.380;10.326;2023-01-29T04:09:10;-3.30;99.90
59881;DHT22;45751;51.380;10.326;2023-01-29T04:11:44;-3.40;99.90
59881;DHT22;45751;51.380;10.326;2023-01-29T04:14:14;-3.40;99.90
59881;DHT22;45751;51.380;10.326;2023-01-29T04:16:46;-3.40;99.90
59881;DHT22;45751;51.380;10.326;2023-01-29T04:19:19;-3.40;99.90
59881;DHT22;45751;51.380;10.326;2023-01-29T04:21:49;-3.40;99.90
59881;DHT22;45751;51.380;10.326;2023-01-29T04:24:18;-3.40;99.90
59881;DHT22;45751;51.380;10.326;2023-01-29T04:27:50;-3.40;99.90
59881;DHT22;45751;51.380;10.326;2023-01-29T04:41:26;-3.50;99.90
59881;DHT22;45751;51.380;10.326;2023-01-29T04:44:09;-3.50;99.90
59881;DHT22;45751;51.380;10.326;2023-01-29T04:52:14;-3.50;99.90
59881;DHT22;45751;51.380;10.326;2023-01-29T05:00:08;-3.60;99.90
59881;DHT22;45751;51.380;10.326;2023-01-29T05:02:40;-3.60;99.90
59881;DHT22;45751;51.380;10.326;2023-01-29T05:05:08;-3.60;99.90
59881;DHT22;45751;51.380;10.326;2023-01-29T05:07:37;-3.60;99.90
59881;DHT22;45751;51.380;10.326;2023-01-29T05:10:06;-3.60;99.90
59881;DHT22;45751;51.380;10.326;2023-01-29T05:12:36;-3.60;99.90
59881;DHT22;45751;51.380;10.326;2023-01-29T05:15:08;-3.50;99.90
59881;DHT22;45751;51.380;10.326;2023-01-29T05:17:37;-3.50;99.90
59881;DHT22;45751;51.380;10.326;2023-01-29T05:20:04;-3.50;99.90
59881;DHT22;45751;51.380;10.326;2023-01-29T05:22:31;-3.40;99.90
59881;DHT22;45751;51.380;10.326;2023-01-29T05:24:58;-3.40;99.90
59881;DHT22;45751;51.380;10.326;2023-01-29T05:27:33;-3.40;99.90
59881;DHT22;45751;51.380;10.326;2023-01-29T05:30:18;-3.40;99.90
59881;DHT22;45751;51.380;10.326;2023-01-29T05:32:45;-3.40;99.90
59881;DHT22;45751;51.380;10.326;2023-01-29T05:35:12;-3.40;99.90
59881;DHT22;45751;51.380;10.326;2023-01-29T05:37:39;-3.40;99.90
59881;DHT22;45751;51.380;10.326;2023-01-29T05:40:06;-3.40;99.90
59881;DHT22;45751;51.380;10.326;2023-01-29T05:42:34;-3.40;99.90
59881;DHT22;45751;51.380;10.326;2023-01-29T05:45:01;-3.30;99.90
59881;DHT22;45751;51.380;10.326;2023-01-29T05:47:28;-3.40;99.90
59881;DHT22;45751;51.380;10.326;2023-01-29T05:49:55;-3.40;99.90
59881;DHT22;45751;51.380;10.326;2023-01-29T05:52:21;-3.40;99.90
59881;DHT22;45751;51.380;10.326;2023-01-29T05:54:48;-3.40;99.90
59881;DHT22;45751;51.380;10.326;2023-01-29T05:57:15;-3.40;99.90
59881;DHT22;45751;51.380;10.326;2023-01-29T05:59:42;-3.40;99.90
59881;DHT22;45751;51.380;10.326;2023-01-29T06:02:09;-3.40;99.90
59881;DHT22;45751;51.380;10.326;2023-01-29T06:04:36;-3.40;99.90
59881;DHT22;45751;51.380;10.326;2023-01-29T06:07:02;-3.40;99.90
59881;DHT22;45751;51.380;10.326;2023-01-29T06:09:30;-3.30;99.90
59881;DHT22;45751;51.380;10.326;2023-01-29T06:11:57;-3.40;99.90
59881;DHT22;45751;51.380;10.326;2023-01-29T06:14:24;-3.30;99.90
59881;DHT22;45751;51.380;10.326;2023-01-29T06:16:51;-3.30;99.90
59881;DHT22;45751;51.380;10.326;2023-01-29T06:19:18;-3.20;99.90
59881;DHT22;45751;51.380;10.326;2023-01-29T06:21:46;-3.20;99.90
59881;DHT22;45751;51.380;10.326;2023-01-29T06:24:13;-3.10;99.90
59881;DHT22;45751;51.380;10.326;2023-01-29T06:26:40;-3.10;99.90
59881;DHT22;45751;51.380;10.326;2023-01-29T06:29:06;-3.10;99.90
59881;DHT22;45751;51.380;10.326;2023-01-29T06:31:33;-3.00;99.90
59881;DHT22;45751;51.380;10.326;2023-01-29T06:34:06;-3.00;99.90
59881;DHT22;45751;51.380;10.326;2023-01-29T06:36:34;-2.90;99.90
59881;DHT22;45751;51.380;10.326;2023-01-29T06:39:01;-2.90;99.90
59881;DHT22;45751;51.380;10.326;2023-01-29T06:41:28;-2.90;99.90
59881;DHT22;45751;51.380;10.326;2023-01-29T06:43:55;-2.80;99.90
59881;DHT22;45751;51.380;10.326;2023-01-29T06:46:22;-2.80;99.90
59881;DHT22;45751;51.380;10.326;2023-01-29T06:48:48;-2.80;99.90
59881;DHT22;45751;51.380;10.326;2023-01-29T06:51:15;-2.70;99.90
59881;DHT22;45751;51.380;10.326;2023-01-29T06:53:42;-2.70;99.90
59881;DHT22;45751;51.380;10.326;2023-01-29T06:56:12;-2.70;99.90
59881;DHT22;45751;51.380;10.326;2023-01-29T06:58:39;-2.70;99.90
59881;DHT22;45751;51.380;10.326;2023-01-29T07:01:10;-2.60;99.90
59881;DHT22;45751;51.380;10.326;2023-01-29T07:03:54;-2.60;99.90
59881;DHT22;45751;51.380;10.326;2023-01-29T07:06:29;-2.60;99.90
59881;DHT22;45751;51.380;10.326;2023-01-29T07:08:56;-2.60;99.90
59881;DHT22;45751;51.380;10.326;2023-01-29T07:11:23;-2.60;99.90
59881;DHT22;45751;51.380;10.326;2023-01-29T07:13:50;-2.60;99.90
59881;DHT22;45751;51.380;10.326;2023-01-29T07:16:16;-2.50;99.90
59881;DHT22;45751;51.380;10.326;2023-01-29T07:18:45;-2.50;99.90
59881;DHT22;45751;51.380;10.326;2023-01-29T07:21:11;-2.50;99.90
59881;DHT22;45751;51.380;10.326;2023-01-29T07:23:38;-2.50;99.90
59881;DHT22;45751;51.380;10.326;2023-01-29T07:26:07;-2.50;99.90
59881;DHT22;45751;51.380;10.326;2023-01-29T07:28:37;-2.50;99.90
59881;DHT22;45751;51.380;10.326;2023-01-29T07:31:05;-2.40;99.90
59881;DHT22;45751;51.380;10.326;2023-01-29T07:33:33;-2.50;99.90
59881;DHT22;45751;51.380;10.326;2023-01-29T07:36:00;-2.40;99.90
59881;DHT22;45751;51.380;10.326;2023-01-29T07:38:27;-2.40;99.90
59881;DHT22;45751;51.380;10.326;2023-01-29T07:40:53;-2.40;99.90
59881;DHT22;45751;51.380;10.326;2023-01-29T07:43:20;-2.40;99.90
59881;DHT22;45751;51.380;10.326;2023-01-29T07:45:50;-2.30;99.90
59881;DHT22;45751;51.380;10.326;2023-01-29T07:48:18;-2.30;99.90
59881;DHT22;45751;51.380;10.326;2023-01-29T07:50:53;-2.30;99.90
59881;DHT22;45751;51.380;10.326;2023-01-29T07:53:20;-2.20;99.90
59881;DHT22;45751;51.380;10.326;2023-01-29T07:55:50;-2.20;99.90
59881;DHT22;45751;51.380;10.326;2023-01-29T07:58:18;-2.20;99.90
59881;DHT22;45751;51.380;10.326;2023-01-29T08:00:46;-2.20;99.90
59881;DHT22;45751;51.380;10.326;2023-01-29T08:03:15;-2.10;99.90
59881;DHT22;45751;51.380;10.326;2023-01-29T08:05:43;-2.10;99.90
59881;DHT22;45751;51.380;10.326;2023-01-29T08:08:10;-2.10;99.90
59881;DHT22;45751;51.380;10.326;2023-01-29T08:10:38;-2.10;99.90
59881;DHT22;45751;51.380;10.326;2023-01-29T08:13:06;-2.10;99.90
59881;DHT22;45751;51.380;10.326;2023-01-29T08:15:33;-2.00;99.90
59881;DHT22;45751;51.380;10.326;2023-01-29T08:18:03;-2.00;99.90
59881;DHT22;45751;51.380;10.326;2023-01-29T08:20:30;-2.00;99.90
59881;DHT22;45751;51.380;10.326;2023-01-29T08:23:09;-2.00;99.90
59881;DHT22;45751;51.380;10.326;2023-01-29T08:25:37;-2.00;99.90
59881;DHT22;45751;51.380;10.326;2023-01-29T08:28:04;-2.00;99.90
59881;DHT22;45751;51.380;10.326;2023-01-29T08:30:32;-2.00;99.90
59881;DHT22;45751;51.380;10.326;2023-01-29T08:33:00;-2.00;99.90
59881;DHT22;45751;51.380;10.326;2023-01-29T08:35:27;-2.00;99.90
59881;DHT22;45751;51.380;10.326;2023-01-29T08:37:58;-2.00;99.90
59881;DHT22;45751;51.380;10.326;2023-01-29T08:40:27;-2.00;99.90
59881;DHT22;45751;51.380;10.326;2023-01-29T08:43:02;-2.00;99.90
59881;DHT22;45751;51.380;10.326;2023-01-29T08:45:33;-2.00;99.90
59881;DHT22;45751;51.380;10.326;2023-01-29T08:48:01;-2.00;99.90
59881;DHT22;45751;51.380;10.326;2023-01-29T08:50:27;-2.00;99.90
59881;DHT22;45751;51.380;10.326;2023-01-29T08:52:59;-1.90;99.90
59881;DHT22;45751;51.380;10.326;2023-01-29T08:55:27;-1.90;99.90
59881;DHT22;45751;51.380;10.326;2023-01-29T08:57:54;-1.90;99.90
59881;DHT22;45751;51.380;10.326;2023-01-29T09:00:23;-1.90;99.90
59881;DHT22;45751;51.380;10.326;2023-01-29T09:02:50;-1.80;99.90
59881;DHT22;45751;51.380;10.326;2023-01-29T09:05:17;-1.80;99.90
59881;DHT22;45751;51.380;10.326;2023-01-29T09:07:44;-1.80;99.90
59881;DHT22;45751;51.380;10.326;2023-01-29T09:10:11;-1.80;99.90
59881;DHT22;45751;51.380;10.326;2023-01-29T09:12:38;-1.70;99.90
59881;DHT22;45751;51.380;10.326;2023-01-29T09:15:06;-1.70;99.90
59881;DHT22;45751;51.380;10.326;2023-01-29T09:17:33;-1.60;99.90
59881;DHT22;45751;51.380;10.326;2023-01-29T09:20:00;-1.60;99.90
59881;DHT22;45751;51.380;10.326;2023-01-29T09:22:27;-1.50;99.90
59881;DHT22;45751;51.380;10.326;2023-01-29T09:24:54;-1.50;99.90
59881;DHT22;45751;51.380;10.326;2023-01-29T09:27:21;-1.40;99.90
59881;DHT22;45751;51.380;10.326;2023-01-29T09:29:48;-1.40;99.90
59881;DHT22;45751;51.380;10.326;2023-01-29T09:32:15;-1.40;99.90
59881;DHT22;45751;51.380;10.326;2023-01-29T09:34:57;-1.30;99.90
59881;DHT22;45751;51.380;10.326;2023-01-29T09:37:24;-1.30;99.90
59881;DHT22;45751;51.380;10.326;2023-01-29T09:39:51;-1.30;99.90
59881;DHT22;45751;51.380;10.326;2023-01-29T09:42:23;-1.30;99.90
59881;DHT22;45751;51.380;10.326;2023-01-29T09:45:08;-1.20;99.90
59881;DHT22;45751;51.380;10.326;2023-01-29T09:47:36;-1.20;99.90
59881;DHT22;45751;51.380;10.326;2023-01-29T09:50:14;-1.20;99.90
59881;DHT22;45751;51.380;10.326;2023-01-29T09:55:22;-1.20;99.90
59881;DHT22;45751;51.380;10.326;2023-01-29T09:57:57;-1.20;99.90
59881;DHT22;45751;51.380;10.326;2023-01-29T10:00:39;-1.30;99.90
59881;DHT22;45751;51.380;10.326;2023-01-29T10:09:05;-1.30;99.90
59881;DHT22;45751;51.380;10.326;2023-01-29T10:14:37;-1.30;99.90
59881;DHT22;45751;51.380;10.326;2023-01-29T10:23:02;-1.30;99.90
59881;DHT22;45751;51.380;10.326;2023-01-29T10:25:34;-1.30;99.90
59881;DHT22;45751;51.380;10.326;2023-01-29T10:28:04;-1.20;99.90
59881;DHT22;45751;51.380;10.326;2023-01-29T10:30:45;-1.20;99.90
59881;DHT22;45751;51.380;10.326;2023-01-29T10:33:18;-1.20;99.90
59881;DHT22;45751;51.380;10.326;2023-01-29T10:35:49;-1.20;99.90
59881;DHT22;45751;51.380;10.326;2023-01-29T10:38:42;-1.10;99.90
59881;DHT22;45751;51.380;10.326;2023-01-29T10:50:04;-1.00;99.90
59881;DHT22;45751;51.380;10.326;2023-01-29T11:00:38;-1.00;99.20
59881;DHT22;45751;51.380;10.326;2023-01-29T11:03:27;-1.00;98.90
59881;DHT22;45751;51.380;10.326;2023-01-29T11:11:17;-1.00;98.50
59881;DHT22;45751;51.380;10.326;2023-01-29T11:13:54;-0.80;98.70
59881;DHT22;45751;51.380;10.326;2023-01-29T11:16:28;-1.00;98.40
59881;DHT22;45751;51.380;10.326;2023-01-29T11:19:00;-1.00;98.30
59881;DHT22;45751;51.380;10.326;2023-01-29T11:21:27;-1.00;98.30
59881;DHT22;45751;51.380;10.326;2023-01-29T11:24:13;-1.00;98.40
59881;DHT22;45751;51.380;10.326;2023-01-29T11:26:44;-1.00;98.30
59881;DHT22;45751;51.380;10.326;2023-01-29T11:29:33;-1.00;98.30
59881;DHT22;45751;51.380;10.326;2023-01-29T11:32:05;-1.00;98.40
59881;DHT22;45751;51.380;10.326;2023-01-29T11:34:33;-0.90;98.30
59881;DHT22;45751;51.380;10.326;2023-01-29T11:37:14;-0.90;98.40
59881;DHT22;45751;51.380;10.326;2023-01-29T11:39:44;-0.90;98.10
59881;DHT22;45751;51.380;10.326;2023-01-29T11:42:20;-0.90;98.20
59881;DHT22;45751;51.380;10.326;2023-01-29T11:44:48;-0.80;98.40
59881;DHT22;45751;51.380;10.326;2023-01-29T11:49:47;-0.90;98.20
59881;DHT22;45751;51.380;10.326;2023-01-29T11:52:18;-0.90;98.20
59881;DHT22;45751;51.380;10.326;2023-01-29T11:54:48;-0.80;98.00
59881;DHT22;45751;51.380;10.326;2023-01-29T11:57:28;-0.80;98.10
59881;DHT22;45751;51.380;10.326;2023-01-29T12:00:06;-0.80;98.10
59881;DHT22;45751;51.380;10.326;2023-01-29T12:02:41;-0.90;98.00
59881;DHT22;45751;51.380;10.326;2023-01-29T12:05:26;-0.90;98.10
59881;DHT22;45751;51.380;10.326;2023-01-29T12:07:56;-0.90;97.90
59881;DHT22;45751;51.380;10.326;2023-01-29T12:15:37;-0.80;98.00
59881;DHT22;45751;51.380;10.326;2023-01-29T12:18:34;-0.80;97.80
59881;DHT22;45751;51.380;10.326;2023-01-29T12:21:04;-0.80;98.10
59881;DHT22;45751;51.380;10.326;2023-01-29T12:23:53;-0.80;97.80
59881;DHT22;45751;51.380;10.326;2023-01-29T12:26:37;-0.80;97.90
59881;DHT22;45751;51.380;10.326;2023-01-29T12:29:29;-0.80;97.80
59881;DHT22;45751;51.380;10.326;2023-01-29T12:32:15;-0.80;97.70
59881;DHT22;45751;51.380;10.326;2023-01-29T12:34:56;-0.80;97.80
59881;DHT22;45751;51.380;10.326;2023-01-29T12:37:43;-0.70;98.20
59881;DHT22;45751;51.380;10.326;2023-01-29T12:40:15;-0.80;98.00
59881;DHT22;45751;51.380;10.326;2023-01-29T12:42:50;-0.80;97.90
59881;DHT22;45751;51.380;10.326;2023-01-29T12:45:21;-0.70;98.00
59881;DHT22;45751;51.380;10.326;2023-01-29T12:47:56;-0.70;97.90
59881;DHT22;45751;51.380;10.326;2023-01-29T12:50:31;-0.70;97.90
59881;DHT22;45751;51.380;10.326;2023-01-29T12:55:48;-0.70;97.90
59881;DHT22;45751;51.380;10.326;2023-01-29T12:58:56;-0.70;97.80
59881;DHT22;45751;51.380;10.326;2023-01-29T13:01:33;-0.70;97.90
59881;DHT22;45751;51.380;10.326;2023-01-29T13:06:55;-0.60;98.20
59881;DHT22;45751;51.380;10.326;2023-01-29T13:09:27;-0.60;98.20
59881;DHT22;45751;51.380;10.326;2023-01-29T13:11:59;-0.50;98.10
59881;DHT22;45751;51.380;10.326;2023-01-29T13:17:25;-0.50;98.00
59881;DHT22;45751;51.380;10.326;2023-01-29T13:19:57;-0.40;97.80
59881;DHT22;45751;51.380;10.326;2023-01-29T13:22:32;-0.40;97.60
59881;DHT22;45751;51.380;10.326;2023-01-29T13:25:00;-0.30;97.70
59881;DHT22;45751;51.380;10.326;2023-01-29T13:27:33;-0.30;97.50
59881;DHT22;45751;51.380;10.326;2023-01-29T13:30:00;-0.30;97.50
59881;DHT22;45751;51.380;10.326;2023-01-29T13:32:29;-0.20;97.20
59881;DHT22;45751;51.380;10.326;2023-01-29T13:35:11;-0.20;96.90
59881;DHT22;45751;51.380;10.326;2023-01-29T13:37:53;-0.20;96.80
59881;DHT22;45751;51.380;10.326;2023-01-29T13:40:22;-0.20;96.60
59881;DHT22;45751;51.380;10.326;2023-01-29T13:42:51;-0.20;96.70
59881;DHT22;45751;51.380;10.326;2023-01-29T13:45:42;-0.10;96.70
59881;DHT22;45751;51.380;10.326;2023-01-29T13:48:29;-0.10;96.80
59881;DHT22;45751;51.380;10.326;2023-01-29T13:51:03;-0.10;96.80
59881;DHT22;45751;51.380;10.326;2023-01-29T13:53:41;-0.10;96.50
59881;DHT22;45751;51.380;10.326;2023-01-29T13:59:02;-0.10;96.20
59881;DHT22;45751;51.380;10.326;2023-01-29T14:01:59;-0.10;96.30
59881;DHT22;45751;51.380;10.326;2023-01-29T14:04:30;-0.10;96.50
59881;DHT22;45751;51.380;10.326;2023-01-29T14:06:58;-0.10;96.50
59881;DHT22;45751;51.380;10.326;2023-01-29T14:11:56;-0.10;96.40
59881;DHT22;45751;51.380;10.326;2023-01-29T14:17:17;-0.20;96.40
59881;DHT22;45751;51.380;10.326;2023-01-29T14:19:53;-0.20;96.50
59881;DHT22;45751;51.380;10.326;2023-01-29T14:22:26;-0.20;96.50
59881;DHT22;45751;51.380;10.326;2023-01-29T14:25:00;-0.20;96.60
59881;DHT22;45751;51.380;10.326;2023-01-29T14:27:28;-0.20;96.70
59881;DHT22;45751;51.380;10.326;2023-01-29T14:29:59;-0.20;96.50
59881;DHT22;45751;51.380;10.326;2023-01-29T14:32:27;-0.20;96.60
59881;DHT22;45751;51.380;10.326;2023-01-29T14:35:03;-0.20;96.50
59881;DHT22;45751;51.380;10.326;2023-01-29T14:37:52;-0.20;96.50
59881;DHT22;45751;51.380;10.326;2023-01-29T14:40:22;-0.20;96.60
59881;DHT22;45751;51.380;10.326;2023-01-29T14:45:34;-0.20;96.50
59881;DHT22;45751;51.380;10.326;2023-01-29T14:53:19;-0.20;96.20
59881;DHT22;45751;51.380;10.326;2023-01-29T15:01:37;-0.20;96.50
59881;DHT22;45751;51.380;10.326;2023-01-29T15:04:16;-0.20;96.50
59881;DHT22;45751;51.380;10.326;2023-01-29T15:06:50;-0.30;96.60
59881;DHT22;45751;51.380;10.326;2023-01-29T15:09:38;-0.20;96.70
59881;DHT22;45751;51.380;10.326;2023-01-29T15:20:40;-0.20;96.80
59881;DHT22;45751;51.380;10.326;2023-01-29T15:23:27;-0.20;96.80
59881;DHT22;45751;51.380;10.326;2023-01-29T15:25:56;-0.20;96.70
59881;DHT22;45751;51.380;10.326;2023-01-29T15:28:27;-0.20;97.00
59881;DHT22;45751;51.380;10.326;2023-01-29T15:30:58;-0.20;96.30
59881;DHT22;45751;51.380;10.326;2023-01-29T15:33:26;-0.20;96.30
59881;DHT22;45751;51.380;10.326;2023-01-29T15:35:58;-0.20;96.30
59881;DHT22;45751;51.380;10.326;2023-01-29T15:38:34;-0.20;96.10
59881;DHT22;45751;51.380;10.326;2023-01-29T15:41:14;-0.20;96.10
59881;DHT22;45751;51.380;10.326;2023-01-29T15:43:44;-0.20;96.10
59881;DHT22;45751;51.380;10.326;2023-01-29T15:48:44;-0.20;95.90
59881;DHT22;45751;51.380;10.326;2023-01-29T15:51:20;-0.20;95.50
59881;DHT22;45751;51.380;10.326;2023-01-29T15:53:53;-0.20;95.30
59881;DHT22;45751;51.380;10.326;2023-01-29T15:56:33;-0.20;95.40
59881;DHT22;45751;51.380;10.326;2023-01-29T15:59:05;-0.10;95.50
59881;DHT22;45751;51.380;10.326;2023-01-29T16:01:35;-0.20;95.40
59881;DHT22;45751;51.380;10.326;2023-01-29T16:04:03;-0.20;95.60
59881;DHT22;45751;51.380;10.326;2023-01-29T16:06:35;-0.20;95.50
59881;DHT22;45751;51.380;10.326;2023-01-29T16:09:04;-0.20;95.50
59881;DHT22;45751;51.380;10.326;2023-01-29T16:11:32;-0.20;95.40
59881;DHT22;45751;51.380;10.326;2023-01-29T16:14:00;-0.20;95.40
59881;DHT22;45751;51.380;10.326;2023-01-29T16:16:28;-0.20;95.40
59881;DHT22;45751;51.380;10.326;2023-01-29T16:18:55;-0.20;95.20
59881;DHT22;45751;51.380;10.326;2023-01-29T16:21:33;-0.20;95.20
59881;DHT22;45751;51.380;10.326;2023-01-29T16:24:12;-0.20;95.00
59881;DHT22;45751;51.380;10.326;2023-01-29T16:26:44;-0.20;95.00
59881;DHT22;45751;51.380;10.326;2023-01-29T16:29:15;-0.20;95.00
59881;DHT22;45751;51.380;10.326;2023-01-29T16:31:44;-0.30;95.00
59881;DHT22;45751;51.380;10.326;2023-01-29T16:34:26;-0.20;95.20
59881;DHT22;45751;51.380;10.326;2023-01-29T16:36:54;-0.30;95.00
59881;DHT22;45751;51.380;10.326;2023-01-29T16:39:24;-0.20;95.00
59881;DHT22;45751;51.380;10.326;2023-01-29T16:42:19;-0.30;95.10
59881;DHT22;45751;51.380;10.326;2023-01-29T16:47:35;-0.30;95.20
59881;DHT22;45751;51.380;10.326;2023-01-29T16:50:32;-0.30;95.30
59881;DHT22;45751;51.380;10.326;2023-01-29T16:53:17;-0.30;95.40
59881;DHT22;45751;51.380;10.326;2023-01-29T16:55:47;-0.30;95.40
59881;DHT22;45751;51.380;10.326;2023-01-29T16:58:18;-0.20;95.40
59881;DHT22;45751;51.380;10.326;2023-01-29T17:00:51;-0.30;95.40
59881;DHT22;45751;51.380;10.326;2023-01-29T17:03:19;-0.30;95.60
59881;DHT22;45751;51.380;10.326;2023-01-29T17:05:47;-0.30;95.70
59881;DHT22;45751;51.380;10.326;2023-01-29T17:08:22;-0.30;95.70
59881;DHT22;45751;51.380;10.326;2023-01-29T17:10:50;-0.30;95.70
59881;DHT22;45751;51.380;10.326;2023-01-29T17:13:26;-0.30;95.90
59881;DHT22;45751;51.380;10.326;2023-01-29T17:16:01;-0.30;96.00
59881;DHT22;45751;51.380;10.326;2023-01-29T17:18:31;-0.30;96.10
59881;DHT22;45751;51.380;10.326;2023-01-29T17:20:58;-0.30;96.30
59881;DHT22;45751;51.380;10.326;2023-01-29T17:23:25;-0.30;96.50
59881;DHT22;45751;51.380;10.326;2023-01-29T17:25:52;-0.30;96.60
59881;DHT22;45751;51.380;10.326;2023-01-29T17:28:19;-0.40;96.70
59881;DHT22;45751;51.380;10.326;2023-01-29T17:30:46;-0.30;96.80
59881;DHT22;45751;51.380;10.326;2023-01-29T17:33:31;-0.40;96.80
59881;DHT22;45751;51.380;10.326;2023-01-29T17:35:57;-0.40;96.90
59881;DHT22;45751;51.380;10.326;2023-01-29T17:38:25;-0.40;97.00
59881;DHT22;45751;51.380;10.326;2023-01-29T17:41:25;-0.30;97.00
59881;DHT22;45751;51.380;10.326;2023-01-29T17:43:53;-0.40;97.00
59881;DHT22;45751;51.380;10.326;2023-01-29T17:46:20;-0.40;97.10
59881;DHT22;45751;51.380;10.326;2023-01-29T17:48:48;-0.40;97.20
59881;DHT22;45751;51.380;10.326;2023-01-29T17:51:16;-0.40;97.20
59881;DHT22;45751;51.380;10.326;2023-01-29T17:53:43;-0.40;97.30
59881;DHT22;45751;51.380;10.326;2023-01-29T17:56:15;-0.40;97.30
59881;DHT22;45751;51.380;10.326;2023-01-29T17:58:43;-0.40;97.30
59881;DHT22;45751;51.380;10.326;2023-01-29T18:01:10;-0.40;97.30
59881;DHT22;45751;51.380;10.326;2023-01-29T18:03:36;-0.50;97.30
59881;DHT22;45751;51.380;10.326;2023-01-29T18:06:06;-0.50;97.40
59881;DHT22;45751;51.380;10.326;2023-01-29T18:08:34;-0.50;97.30
59881;DHT22;45751;51.380;10.326;2023-01-29T18:11:02;-0.50;97.40
59881;DHT22;45751;51.380;10.326;2023-01-29T18:13:29;-0.50;97.40
59881;DHT22;45751;51.380;10.326;2023-01-29T18:15:56;-0.50;97.40